Chrisanthi — SX7108 — position and weather

sailwx.info

Track history (hours):
 
Tides and Currents Weather Stations Pressure Air Temp Water Temp Dewpoint Dewpoint Depression Visibility Wind Speed Wind Dir Waves Ship Positions

Chrisanthi

Last reported at 2016-May-24 19:33 UTC. Time now 2016-May-24 19:35 UTC.
Position N 37°15' E 024°51'.

Length 56 m; draft 3.9 m.

Type: Ship (hazmat cat A). MMSI: 237009100.

Date/timePositionNaut miles runAvg speedWind from/ knotsBaromVisibWave heightAir tempDewpointWater temp
2016-May-24 19:33N 37°15' E 024°51'40 9.9
2016-May-24 15:33N 37°24' E 024°02'10 9.9
2016-May-24 14:33N 37°28' E 023°51'10 9.9
2016-May-24 13:33N 37°32' E 023°40'10 9.8
2016-May-24 12:33N 37°36' E 023°28'9 9.5
2016-May-24 11:33N 37°41' E 023°18'1110.4
2016-May-24 10:31N 37°50' E 023°11'7 0.9
2016-May-24 03:30N 37°55' E 023°05'0 0.0
2016-May-24 02:23N 37°55' E 023°05'0 0.0
2016-May-24 01:33N 37°55' E 023°05'0 0.0
2016-May-24 00:34N 37°55' E 023°05'0 0.0
2016-May-23 23:32N 37°55' E 023°05'7 6.7
2016-May-23 22:32N 37°50' E 023°11'1010.2
2016-May-23 21:33N 37°42' E 023°17'10 9.6
2016-May-23 20:33N 37°39' E 023°29'1010.2
2016-May-23 19:33N 37°33' E 023°40'1010.1
2016-May-23 18:33N 37°27' E 023°50'65 2.1
2016-May-22 11:33N 37°04' E 025°06'3 0.5
2016-May-22 04:33N 37°07' E 025°09'8 8.6
2016-May-22 03:33N 37°09' E 025°19'4 3.5
2016-May-22 02:33N 37°06' E 025°22'0 0.0
2016-May-22 01:33N 37°06' E 025°22'0 0.0
2016-May-22 00:33N 37°06' E 025°22'0 0.0
2016-May-21 23:33N 37°06' E 025°22'0 0.0
2016-May-21 22:33N 37°06' E 025°22'0 0.0
2016-May-21 21:33N 37°06' E 025°22'1 1.0
2016-May-21 20:33N 37°07' E 025°23'18 9.0
2016-May-21 18:33N 37°12' E 025°44'22 0.5
2016-May-19 20:33N 37°02' E 025°20'5 4.6
2016-May-19 19:33N 37°06' E 025°22'0 0.0
2016-May-19 18:33N 37°06' E 025°22'1 0.8
2016-May-19 17:33N 37°07' E 025°21'  
Track history (hours):
 
Tides and Currents Weather Stations Pressure Air Temp Water Temp Dewpoint Dewpoint Depression Visibility Wind Speed Wind Dir Waves Ship Positions

Chrisanthi

Last reported at 2016-May-24 19:33 UTC. Time now 2016-May-24 19:35 UTC.
Position N 37°15' E 024°51'.

Length 56 m; draft 3.9 m.

Type: Ship (hazmat cat A). MMSI: 237009100.

Date/timePositionNaut miles runAvg speedWind from/ knotsBaromVisibWave heightAir tempDewpointWater temp
2016-May-24 19:33N 37°15' E 024°51'40 9.9
2016-May-24 15:33N 37°24' E 024°02'10 9.9
2016-May-24 14:33N 37°28' E 023°51'10 9.9
2016-May-24 13:33N 37°32' E 023°40'10 9.8
2016-May-24 12:33N 37°36' E 023°28'9 9.5
2016-May-24 11:33N 37°41' E 023°18'1110.4
2016-May-24 10:31N 37°50' E 023°11'7 0.9
2016-May-24 03:30N 37°55' E 023°05'0 0.0
2016-May-24 02:23N 37°55' E 023°05'0 0.0
2016-May-24 01:33N 37°55' E 023°05'0 0.0
2016-May-24 00:34N 37°55' E 023°05'0 0.0
2016-May-23 23:32N 37°55' E 023°05'7 6.7
2016-May-23 22:32N 37°50' E 023°11'1010.2
2016-May-23 21:33N 37°42' E 023°17'10 9.6
2016-May-23 20:33N 37°39' E 023°29'1010.2
2016-May-23 19:33N 37°33' E 023°40'1010.1
2016-May-23 18:33N 37°27' E 023°50'65 2.1
2016-May-22 11:33N 37°04' E 025°06'3 0.5
2016-May-22 04:33N 37°07' E 025°09'8 8.6
2016-May-22 03:33N 37°09' E 025°19'4 3.5
2016-May-22 02:33N 37°06' E 025°22'0 0.0
2016-May-22 01:33N 37°06' E 025°22'0 0.0
2016-May-22 00:33N 37°06' E 025°22'0 0.0
2016-May-21 23:33N 37°06' E 025°22'0 0.0
2016-May-21 22:33N 37°06' E 025°22'0 0.0
2016-May-21 21:33N 37°06' E 025°22'1 1.0
2016-May-21 20:33N 37°07' E 025°23'18 9.0
2016-May-21 18:33N 37°12' E 025°44'22 0.5
2016-May-19 20:33N 37°02' E 025°20'5 4.6
2016-May-19 19:33N 37°06' E 025°22'0 0.0
2016-May-19 18:33N 37°06' E 025°22'1 0.8
2016-May-19 17:33N 37°07' E 025°21'  

Dump ship's entire track history